sensor_id;sensor_type;location;lat;lon;timestamp;P1;durP1;ratioP1;P2;durP2;ratioP2
1328;SDS011;658;48.820;9.354;2024-01-10T00:00:05;4.83;;;4.43;;
1328;SDS011;658;48.820;9.354;2024-01-10T00:04:06;4.50;;;4.20;;
1328;SDS011;658;48.820;9.354;2024-01-10T00:08:07;4.40;;;4.00;;
1328;SDS011;658;48.820;9.354;2024-01-10T00:12:08;4.77;;;4.37;;
1328;SDS011;658;48.820;9.354;2024-01-10T00:16:08;4.50;;;4.13;;
1328;SDS011;658;48.820;9.354;2024-01-10T00:20:11;4.90;;;4.50;;
1328;SDS011;658;48.820;9.354;2024-01-10T00:24:12;4.87;;;4.47;;
1328;SDS011;658;48.820;9.354;2024-01-10T00:28:13;5.00;;;4.60;;
1328;SDS011;658;48.820;9.354;2024-01-10T00:32:18;4.37;;;4.07;;
1328;SDS011;658;48.820;9.354;2024-01-10T00:36:18;4.60;;;4.30;;
1328;SDS011;658;48.820;9.354;2024-01-10T00:40:19;4.10;;;3.80;;
1328;SDS011;658;48.820;9.354;2024-01-10T00:44:19;4.97;;;4.57;;
1328;SDS011;658;48.820;9.354;2024-01-10T00:48:20;4.73;;;4.33;;
1328;SDS011;658;48.820;9.354;2024-01-10T00:52:20;4.80;;;4.40;;
1328;SDS011;658;48.820;9.354;2024-01-10T00:56:21;4.40;;;4.10;;
1328;SDS011;658;48.820;9.354;2024-01-10T01:00:21;5.17;;;4.70;;
1328;SDS011;658;48.820;9.354;2024-01-10T01:04:24;5.40;;;5.00;;
1328;SDS011;658;48.820;9.354;2024-01-10T01:08:27;5.10;;;4.70;;
1328;SDS011;658;48.820;9.354;2024-01-10T01:12:28;5.30;;;4.90;;
1328;SDS011;658;48.820;9.354;2024-01-10T01:16:29;5.67;;;5.17;;
1328;SDS011;658;48.820;9.354;2024-01-10T01:20:34;4.83;;;4.43;;
1328;SDS011;658;48.820;9.354;2024-01-10T01:24:34;4.60;;;4.30;;
1328;SDS011;658;48.820;9.354;2024-01-10T01:28:35;5.47;;;4.97;;
1328;SDS011;658;48.820;9.354;2024-01-10T01:32:36;5.07;;;4.70;;
1328;SDS011;658;48.820;9.354;2024-01-10T01:36:36;5.37;;;4.87;;
1328;SDS011;658;48.820;9.354;2024-01-10T01:40:37;4.80;;;4.50;;
1328;SDS011;658;48.820;9.354;2024-01-10T01:44:37;5.07;;;4.67;;
1328;SDS011;658;48.820;9.354;2024-01-10T01:48:38;4.27;;;3.97;;
1328;SDS011;658;48.820;9.354;2024-01-10T01:52:39;5.70;;;5.20;;
1328;SDS011;658;48.820;9.354;2024-01-10T01:56:40;5.43;;;4.93;;
1328;SDS011;658;48.820;9.354;2024-01-10T02:00:42;5.00;;;4.60;;
1328;SDS011;658;48.820;9.354;2024-01-10T02:04:43;5.70;;;5.10;;
1328;SDS011;658;48.820;9.354;2024-01-10T02:08:46;5.27;;;4.83;;
1328;SDS011;658;48.820;9.354;2024-01-10T02:12:49;5.13;;;4.73;;
1328;SDS011;658;48.820;9.354;2024-01-10T02:16:50;5.70;;;5.20;;
1328;SDS011;658;48.820;9.354;2024-01-10T02:20:54;6.13;;;5.63;;
1328;SDS011;658;48.820;9.354;2024-01-10T02:24:54;5.40;;;5.00;;
1328;SDS011;658;48.820;9.354;2024-01-10T02:28:57;5.53;;;5.03;;
1328;SDS011;658;48.820;9.354;2024-01-10T02:32:58;6.47;;;5.97;;
1328;SDS011;658;48.820;9.354;2024-01-10T02:36:59;5.67;;;5.17;;
1328;SDS011;658;48.820;9.354;2024-01-10T02:40:59;5.93;;;5.43;;
1328;SDS011;658;48.820;9.354;2024-01-10T02:45:02;6.00;;;5.50;;
1328;SDS011;658;48.820;9.354;2024-01-10T02:49:04;5.93;;;5.33;;
1328;SDS011;658;48.820;9.354;2024-01-10T02:53:04;5.43;;;4.93;;
1328;SDS011;658;48.820;9.354;2024-01-10T02:57:05;5.70;;;5.10;;
1328;SDS011;658;48.820;9.354;2024-01-10T03:01:05;6.00;;;5.50;;
1328;SDS011;658;48.820;9.354;2024-01-10T03:05:06;5.23;;;4.83;;
1328;SDS011;658;48.820;9.354;2024-01-10T03:09:07;6.10;;;5.60;;
1328;SDS011;658;48.820;9.354;2024-01-10T03:13:08;5.93;;;5.13;;
1328;SDS011;658;48.820;9.354;2024-01-10T03:17:09;5.80;;;5.30;;
1328;SDS011;658;48.820;9.354;2024-01-10T03:21:09;5.80;;;5.40;;
1328;SDS011;658;48.820;9.354;2024-01-10T03:25:10;5.57;;;5.07;;
1328;SDS011;658;48.820;9.354;2024-01-10T03:29:11;5.57;;;5.17;;
1328;SDS011;658;48.820;9.354;2024-01-10T03:33:11;6.10;;;5.60;;
1328;SDS011;658;48.820;9.354;2024-01-10T03:37:12;5.83;;;5.33;;
1328;SDS011;658;48.820;9.354;2024-01-10T03:41:21;5.37;;;4.87;;
1328;SDS011;658;48.820;9.354;2024-01-10T03:45:22;5.90;;;5.40;;
1328;SDS011;658;48.820;9.354;2024-01-10T03:49:23;5.90;;;5.40;;
1328;SDS011;658;48.820;9.354;2024-01-10T03:53:26;5.07;;;4.67;;
1328;SDS011;658;48.820;9.354;2024-01-10T03:57:27;6.23;;;5.70;;
1328;SDS011;658;48.820;9.354;2024-01-10T04:01:27;5.30;;;4.90;;
1328;SDS011;658;48.820;9.354;2024-01-10T04:05:28;5.70;;;5.20;;
1328;SDS011;658;48.820;9.354;2024-01-10T04:09:28;5.30;;;4.80;;
1328;SDS011;658;48.820;9.354;2024-01-10T04:13:31;5.00;;;4.60;;
1328;SDS011;658;48.820;9.354;2024-01-10T04:17:32;5.10;;;4.70;;
1328;SDS011;658;48.820;9.354;2024-01-10T04:21:35;5.80;;;5.30;;
1328;SDS011;658;48.820;9.354;2024-01-10T04:25:35;6.43;;;5.90;;
1328;SDS011;658;48.820;9.354;2024-01-10T04:29:36;5.63;;;5.13;;
1328;SDS011;658;48.820;9.354;2024-01-10T04:33:39;5.23;;;4.80;;
1328;SDS011;658;48.820;9.354;2024-01-10T04:37:42;5.40;;;4.90;;
1328;SDS011;658;48.820;9.354;2024-01-10T04:41:42;5.23;;;4.83;;
1328;SDS011;658;48.820;9.354;2024-01-10T04:45:43;6.53;;;5.93;;
1328;SDS011;658;48.820;9.354;2024-01-10T04:49:44;5.20;;;4.80;;
1328;SDS011;658;48.820;9.354;2024-01-10T04:53:44;6.00;;;5.50;;
1328;SDS011;658;48.820;9.354;2024-01-10T04:57:45;5.67;;;5.17;;
1328;SDS011;658;48.820;9.354;2024-01-10T05:01:45;5.10;;;4.70;;
1328;SDS011;658;48.820;9.354;2024-01-10T05:05:46;5.37;;;4.90;;
1328;SDS011;658;48.820;9.354;2024-01-10T05:09:46;5.33;;;4.93;;
1328;SDS011;658;48.820;9.354;2024-01-10T05:13:47;5.80;;;5.40;;
1328;SDS011;658;48.820;9.354;2024-01-10T05:17:50;4.87;;;4.47;;
1328;SDS011;658;48.820;9.354;2024-01-10T05:21:53;4.97;;;4.57;;
1328;SDS011;658;48.820;9.354;2024-01-10T05:25:54;5.50;;;5.10;;
1328;SDS011;658;48.820;9.354;2024-01-10T05:29:55;5.10;;;4.70;;
1328;SDS011;658;48.820;9.354;2024-01-10T05:33:55;5.40;;;4.90;;
1328;SDS011;658;48.820;9.354;2024-01-10T05:37:56;5.20;;;4.80;;
1328;SDS011;658;48.820;9.354;2024-01-10T05:41:56;5.33;;;4.93;;
1328;SDS011;658;48.820;9.354;2024-01-10T05:45:57;5.90;;;5.40;;
1328;SDS011;658;48.820;9.354;2024-01-10T05:49:59;4.93;;;4.53;;
1328;SDS011;658;48.820;9.354;2024-01-10T05:54:02;5.03;;;4.63;;
1328;SDS011;658;48.820;9.354;2024-01-10T05:58:04;4.47;;;4.10;;
1328;SDS011;658;48.820;9.354;2024-01-10T06:02:04;5.60;;;5.10;;
1328;SDS011;658;48.820;9.354;2024-01-10T06:06:05;5.00;;;4.60;;
1328;SDS011;658;48.820;9.354;2024-01-10T06:10:06;4.90;;;4.50;;
1328;SDS011;658;48.820;9.354;2024-01-10T06:14:07;4.93;;;4.50;;
1328;SDS011;658;48.820;9.354;2024-01-10T06:18:10;5.63;;;4.87;;
1328;SDS011;658;48.820;9.354;2024-01-10T06:22:10;4.77;;;4.37;;
1328;SDS011;658;48.820;9.354;2024-01-10T06:26:11;5.20;;;4.80;;
1328;SDS011;658;48.820;9.354;2024-01-10T06:30:12;4.47;;;4.17;;
1328;SDS011;658;48.820;9.354;2024-01-10T06:34:12;5.40;;;4.90;;
1328;SDS011;658;48.820;9.354;2024-01-10T06:38:13;4.93;;;4.53;;
1328;SDS011;658;48.820;9.354;2024-01-10T06:42:14;5.40;;;5.00;;
1328;SDS011;658;48.820;9.354;2024-01-10T06:46:14;7.47;;;6.77;;
1328;SDS011;658;48.820;9.354;2024-01-10T06:50:17;5.43;;;5.03;;
1328;SDS011;658;48.820;9.354;2024-01-10T06:54:20;5.47;;;4.97;;
1328;SDS011;658;48.820;9.354;2024-01-10T06:58:21;6.13;;;5.53;;
1328;SDS011;658;48.820;9.354;2024-01-10T07:02:22;5.80;;;5.30;;
1328;SDS011;658;48.820;9.354;2024-01-10T07:06:23;5.20;;;4.80;;
1328;SDS011;658;48.820;9.354;2024-01-10T07:10:24;6.20;;;5.60;;
1328;SDS011;658;48.820;9.354;2024-01-10T07:14:28;5.70;;;5.20;;
1328;SDS011;658;48.820;9.354;2024-01-10T07:18:29;5.23;;;4.83;;
1328;SDS011;658;48.820;9.354;2024-01-10T07:22:30;5.57;;;5.07;;
1328;SDS011;658;48.820;9.354;2024-01-10T07:26:32;6.73;;;4.97;;
1328;SDS011;658;48.820;9.354;2024-01-10T07:30:33;5.83;;;5.30;;
1328;SDS011;658;48.820;9.354;2024-01-10T07:34:33;5.50;;;4.90;;
1328;SDS011;658;48.820;9.354;2024-01-10T07:38:34;4.93;;;4.53;;
1328;SDS011;658;48.820;9.354;2024-01-10T07:42:34;5.30;;;4.80;;
1328;SDS011;658;48.820;9.354;2024-01-10T07:46:35;5.07;;;4.67;;
1328;SDS011;658;48.820;9.354;2024-01-10T07:50:38;6.57;;;4.60;;
1328;SDS011;658;48.820;9.354;2024-01-10T07:54:38;5.67;;;5.17;;
1328;SDS011;658;48.820;9.354;2024-01-10T07:58:39;4.90;;;4.50;;
1328;SDS011;658;48.820;9.354;2024-01-10T08:02:40;5.20;;;4.80;;
1328;SDS011;658;48.820;9.354;2024-01-10T08:06:40;5.40;;;4.90;;
1328;SDS011;658;48.820;9.354;2024-01-10T08:10:42;4.73;;;4.33;;
1328;SDS011;658;48.820;9.354;2024-01-10T08:14:42;6.97;;;5.10;;
1328;SDS011;658;48.820;9.354;2024-01-10T08:18:45;5.20;;;4.80;;
1328;SDS011;658;48.820;9.354;2024-01-10T08:22:47;5.27;;;4.77;;
1328;SDS011;658;48.820;9.354;2024-01-10T08:26:48;5.40;;;4.90;;
1328;SDS011;658;48.820;9.354;2024-01-10T08:30:52;4.80;;;4.40;;
1328;SDS011;658;48.820;9.354;2024-01-10T08:34:53;5.57;;;4.77;;
1328;SDS011;658;48.820;9.354;2024-01-10T08:38:53;5.30;;;4.80;;
1328;SDS011;658;48.820;9.354;2024-01-10T08:42:56;4.93;;;4.53;;
1328;SDS011;658;48.820;9.354;2024-01-10T08:46:57;4.53;;;4.13;;
1328;SDS011;658;48.820;9.354;2024-01-10T08:50:59;4.80;;;4.40;;
1328;SDS011;658;48.820;9.354;2024-01-10T08:55:00;4.97;;;4.57;;
1328;SDS011;658;48.820;9.354;2024-01-10T08:59:01;4.80;;;4.43;;
1328;SDS011;658;48.820;9.354;2024-01-10T09:03:01;4.97;;;4.57;;
1328;SDS011;658;48.820;9.354;2024-01-10T09:07:02;9.23;;;5.00;;
1328;SDS011;658;48.820;9.354;2024-01-10T09:11:03;5.03;;;4.63;;
1328;SDS011;658;48.820;9.354;2024-01-10T09:15:04;5.30;;;4.80;;
1328;SDS011;658;48.820;9.354;2024-01-10T09:19:05;5.20;;;4.80;;
1328;SDS011;658;48.820;9.354;2024-01-10T09:23:05;5.10;;;4.70;;
1328;SDS011;658;48.820;9.354;2024-01-10T09:27:06;5.40;;;4.90;;
1328;SDS011;658;48.820;9.354;2024-01-10T09:31:07;4.70;;;4.30;;
1328;SDS011;658;48.820;9.354;2024-01-10T09:35:08;5.20;;;4.80;;
1328;SDS011;658;48.820;9.354;2024-01-10T09:39:09;5.00;;;4.60;;
1328;SDS011;658;48.820;9.354;2024-01-10T09:43:13;5.20;;;4.80;;
1328;SDS011;658;48.820;9.354;2024-01-10T09:47:14;4.63;;;4.30;;
1328;SDS011;658;48.820;9.354;2024-01-10T09:51:15;4.80;;;4.40;;
1328;SDS011;658;48.820;9.354;2024-01-10T09:55:16;6.30;;;4.83;;
1328;SDS011;658;48.820;9.354;2024-01-10T09:59:20;4.70;;;4.30;;
1328;SDS011;658;48.820;9.354;2024-01-10T10:03:21;4.80;;;4.40;;
1328;SDS011;658;48.820;9.354;2024-01-10T10:07:22;4.93;;;4.53;;
1328;SDS011;658;48.820;9.354;2024-01-10T10:11:22;5.10;;;4.70;;
1328;SDS011;658;48.820;9.354;2024-01-10T10:15:23;4.87;;;4.47;;
1328;SDS011;658;48.820;9.354;2024-01-10T10:19:27;5.13;;;4.67;;
1328;SDS011;658;48.820;9.354;2024-01-10T10:23:28;5.20;;;4.30;;
1328;SDS011;658;48.820;9.354;2024-01-10T10:27:28;4.70;;;4.30;;
1328;SDS011;658;48.820;9.354;2024-01-10T10:31:29;4.90;;;4.50;;
1328;SDS011;658;48.820;9.354;2024-01-10T10:35:32;5.17;;;4.77;;
1328;SDS011;658;48.820;9.354;2024-01-10T10:39:34;4.63;;;4.20;;
1328;SDS011;658;48.820;9.354;2024-01-10T10:43:34;4.80;;;4.40;;
1328;SDS011;658;48.820;9.354;2024-01-10T10:47:36;4.77;;;4.37;;
1328;SDS011;658;48.820;9.354;2024-01-10T10:51:40;4.90;;;4.40;;
1328;SDS011;658;48.820;9.354;2024-01-10T10:55:42;4.27;;;3.93;;
1328;SDS011;658;48.820;9.354;2024-01-10T10:59:42;8.73;;;4.80;;
1328;SDS011;658;48.820;9.354;2024-01-10T11:03:45;5.37;;;4.37;;
1328;SDS011;658;48.820;9.354;2024-01-10T11:07:47;5.30;;;4.80;;
1328;SDS011;658;48.820;9.354;2024-01-10T11:16:23;4.80;;;4.40;;
1328;SDS011;658;48.820;9.354;2024-01-10T11:25:14;5.13;;;4.60;;
1328;SDS011;658;48.820;9.354;2024-01-10T11:29:15;5.20;;;4.80;;
1328;SDS011;658;48.820;9.354;2024-01-10T11:33:22;5.10;;;4.57;;
1328;SDS011;658;48.820;9.354;2024-01-10T11:37:44;4.97;;;4.23;;
1328;SDS011;658;48.820;9.354;2024-01-10T11:41:45;4.57;;;4.17;;
1328;SDS011;658;48.820;9.354;2024-01-10T11:45:50;5.00;;;4.50;;
1328;SDS011;658;48.820;9.354;2024-01-10T11:49:57;5.90;;;4.43;;
1328;SDS011;658;48.820;9.354;2024-01-10T11:53:58;4.93;;;4.40;;
1328;SDS011;658;48.820;9.354;2024-01-10T11:58:08;5.10;;;4.60;;
1328;SDS011;658;48.820;9.354;2024-01-10T12:02:10;4.93;;;4.53;;
1328;SDS011;658;48.820;9.354;2024-01-10T12:06:12;4.47;;;4.10;;
1328;SDS011;658;48.820;9.354;2024-01-10T12:10:15;5.73;;;5.30;;
1328;SDS011;658;48.820;9.354;2024-01-10T12:14:16;5.27;;;4.87;;
1328;SDS011;658;48.820;9.354;2024-01-10T12:18:17;8.03;;;4.77;;
1328;SDS011;658;48.820;9.354;2024-01-10T12:22:21;6.60;;;6.00;;
1328;SDS011;658;48.820;9.354;2024-01-10T12:26:22;6.73;;;6.13;;
1328;SDS011;658;48.820;9.354;2024-01-10T12:30:23;6.70;;;6.03;;
1328;SDS011;658;48.820;9.354;2024-01-10T12:34:23;6.97;;;6.37;;
1328;SDS011;658;48.820;9.354;2024-01-10T12:38:24;6.23;;;5.63;;
1328;SDS011;658;48.820;9.354;2024-01-10T12:42:26;7.37;;;6.67;;
1328;SDS011;658;48.820;9.354;2024-01-10T12:46:26;7.47;;;6.77;;
1328;SDS011;658;48.820;9.354;2024-01-10T12:50:29;8.10;;;7.40;;
1328;SDS011;658;48.820;9.354;2024-01-10T12:54:30;8.77;;;7.97;;
1328;SDS011;658;48.820;9.354;2024-01-10T12:58:34;8.30;;;7.50;;
1328;SDS011;658;48.820;9.354;2024-01-10T13:02:38;9.07;;;8.33;;
1328;SDS011;658;48.820;9.354;2024-01-10T13:06:40;9.17;;;8.30;;
1328;SDS011;658;48.820;9.354;2024-01-10T13:10:41;8.60;;;7.80;;
1328;SDS011;658;48.820;9.354;2024-01-10T13:14:42;8.80;;;8.00;;
1328;SDS011;658;48.820;9.354;2024-01-10T13:18:43;8.27;;;7.53;;
1328;SDS011;658;48.820;9.354;2024-01-10T13:22:46;9.00;;;8.30;;
1328;SDS011;658;48.820;9.354;2024-01-10T13:26:47;8.60;;;7.90;;
1328;SDS011;658;48.820;9.354;2024-01-10T13:30:48;9.33;;;8.53;;
1328;SDS011;658;48.820;9.354;2024-01-10T13:34:50;9.67;;;8.77;;
1328;SDS011;658;48.820;9.354;2024-01-10T13:38:53;9.17;;;8.27;;
1328;SDS011;658;48.820;9.354;2024-01-10T13:42:54;8.70;;;8.00;;
1328;SDS011;658;48.820;9.354;2024-01-10T13:46:57;8.73;;;7.93;;
1328;SDS011;658;48.820;9.354;2024-01-10T13:50:58;9.53;;;8.73;;
1328;SDS011;658;48.820;9.354;2024-01-10T13:54:59;9.07;;;8.37;;
1328;SDS011;658;48.820;9.354;2024-01-10T13:59:00;8.83;;;8.13;;
1328;SDS011;658;48.820;9.354;2024-01-10T14:03:00;9.17;;;8.37;;
1328;SDS011;658;48.820;9.354;2024-01-10T14:07:01;8.80;;;8.00;;
1328;SDS011;658;48.820;9.354;2024-01-10T14:11:04;8.67;;;7.97;;
1328;SDS011;658;48.820;9.354;2024-01-10T14:15:04;9.10;;;8.20;;
1328;SDS011;658;48.820;9.354;2024-01-10T14:19:05;9.40;;;8.40;;
1328;SDS011;658;48.820;9.354;2024-01-10T14:23:08;8.43;;;7.70;;
1328;SDS011;658;48.820;9.354;2024-01-10T14:27:09;8.10;;;7.40;;
1328;SDS011;658;48.820;9.354;2024-01-10T14:31:09;8.30;;;7.53;;
1328;SDS011;658;48.820;9.354;2024-01-10T14:35:13;8.00;;;7.40;;
1328;SDS011;658;48.820;9.354;2024-01-10T14:39:14;8.00;;;7.30;;
1328;SDS011;658;48.820;9.354;2024-01-10T14:43:15;8.10;;;7.40;;
1328;SDS011;658;48.820;9.354;2024-01-10T14:47:16;8.33;;;7.63;;
1328;SDS011;658;48.820;9.354;2024-01-10T14:51:16;8.03;;;7.43;;
1328;SDS011;658;48.820;9.354;2024-01-10T14:55:17;7.47;;;6.77;;
1328;SDS011;658;48.820;9.354;2024-01-10T14:59:19;8.00;;;7.40;;
1328;SDS011;658;48.820;9.354;2024-01-10T15:03:19;7.93;;;7.33;;
1328;SDS011;658;48.820;9.354;2024-01-10T15:07:21;9.07;;;8.20;;
1328;SDS011;658;48.820;9.354;2024-01-10T15:11:21;8.93;;;8.13;;
1328;SDS011;658;48.820;9.354;2024-01-10T15:15:22;7.93;;;7.13;;
1328;SDS011;658;48.820;9.354;2024-01-10T15:19:23;10.10;;;7.57;;
1328;SDS011;658;48.820;9.354;2024-01-10T15:23:23;9.13;;;7.10;;
1328;SDS011;658;48.820;9.354;2024-01-10T15:27:25;8.60;;;7.80;;
1328;SDS011;658;48.820;9.354;2024-01-10T15:31:28;7.53;;;6.80;;
1328;SDS011;658;48.820;9.354;2024-01-10T15:35:28;7.40;;;6.80;;
1328;SDS011;658;48.820;9.354;2024-01-10T15:39:29;8.73;;;6.83;;
1328;SDS011;658;48.820;9.354;2024-01-10T15:43:30;7.17;;;6.47;;
1328;SDS011;658;48.820;9.354;2024-01-10T15:47:31;7.43;;;6.47;;
1328;SDS011;658;48.820;9.354;2024-01-10T15:51:34;10.50;;;6.70;;
1328;SDS011;658;48.820;9.354;2024-01-10T15:55:34;7.07;;;6.37;;
1328;SDS011;658;48.820;9.354;2024-01-10T15:59:36;6.87;;;6.27;;
1328;SDS011;658;48.820;9.354;2024-01-10T16:03:37;8.30;;;6.53;;
1328;SDS011;658;48.820;9.354;2024-01-10T16:07:40;6.20;;;5.60;;
1328;SDS011;658;48.820;9.354;2024-01-10T16:11:41;6.73;;;6.07;;
1328;SDS011;658;48.820;9.354;2024-01-10T16:15:44;7.07;;;6.47;;
1328;SDS011;658;48.820;9.354;2024-01-10T16:19:45;6.20;;;5.70;;
1328;SDS011;658;48.820;9.354;2024-01-10T16:23:45;7.07;;;6.47;;
1328;SDS011;658;48.820;9.354;2024-01-10T16:27:46;8.80;;;6.80;;
1328;SDS011;658;48.820;9.354;2024-01-10T16:31:47;6.33;;;5.73;;
1328;SDS011;658;48.820;9.354;2024-01-10T16:35:48;7.30;;;6.60;;
1328;SDS011;658;48.820;9.354;2024-01-10T16:39:48;7.47;;;6.87;;
1328;SDS011;658;48.820;9.354;2024-01-10T16:43:49;5.80;;;5.40;;
1328;SDS011;658;48.820;9.354;2024-01-10T16:47:49;6.07;;;5.57;;
1328;SDS011;658;48.820;9.354;2024-01-10T16:51:50;5.90;;;5.40;;
1328;SDS011;658;48.820;9.354;2024-01-10T16:55:51;6.10;;;5.60;;
1328;SDS011;658;48.820;9.354;2024-01-10T16:59:52;6.10;;;5.60;;
1328;SDS011;658;48.820;9.354;2024-01-10T17:03:52;5.70;;;5.30;;
1328;SDS011;658;48.820;9.354;2024-01-10T17:07:55;6.53;;;5.93;;
1328;SDS011;658;48.820;9.354;2024-01-10T17:11:56;6.20;;;5.60;;
1328;SDS011;658;48.820;9.354;2024-01-10T17:15:56;6.33;;;5.83;;
1328;SDS011;658;48.820;9.354;2024-01-10T17:19:57;5.83;;;5.33;;
1328;SDS011;658;48.820;9.354;2024-01-10T17:23:58;7.10;;;6.50;;
1328;SDS011;658;48.820;9.354;2024-01-10T17:27:59;6.90;;;6.37;;
1328;SDS011;658;48.820;9.354;2024-01-10T17:31:59;6.57;;;5.83;;
1328;SDS011;658;48.820;9.354;2024-01-10T17:36:00;5.90;;;5.40;;
1328;SDS011;658;48.820;9.354;2024-01-10T17:40:01;5.47;;;4.97;;
1328;SDS011;658;48.820;9.354;2024-01-10T17:44:04;5.87;;;5.47;;
1328;SDS011;658;48.820;9.354;2024-01-10T17:48:04;6.00;;;5.40;;
1328;SDS011;658;48.820;9.354;2024-01-10T17:52:05;6.30;;;5.77;;
1328;SDS011;658;48.820;9.354;2024-01-10T17:56:06;5.27;;;4.90;;
1328;SDS011;658;48.820;9.354;2024-01-10T18:00:07;6.23;;;5.73;;
1328;SDS011;658;48.820;9.354;2024-01-10T18:04:10;6.20;;;5.70;;
1328;SDS011;658;48.820;9.354;2024-01-10T18:08:14;6.17;;;5.67;;
1328;SDS011;658;48.820;9.354;2024-01-10T18:12:14;6.00;;;5.50;;
1328;SDS011;658;48.820;9.354;2024-01-10T18:16:15;6.33;;;5.83;;
1328;SDS011;658;48.820;9.354;2024-01-10T18:20:15;5.97;;;5.47;;
1328;SDS011;658;48.820;9.354;2024-01-10T18:24:16;5.63;;;5.23;;
1328;SDS011;658;48.820;9.354;2024-01-10T18:28:17;6.03;;;5.53;;
1328;SDS011;658;48.820;9.354;2024-01-10T18:32:17;6.40;;;5.83;;
1328;SDS011;658;48.820;9.354;2024-01-10T18:36:22;6.37;;;5.87;;
1328;SDS011;658;48.820;9.354;2024-01-10T18:40:23;7.10;;;6.50;;
1328;SDS011;658;48.820;9.354;2024-01-10T18:44:24;5.73;;;5.33;;
1328;SDS011;658;48.820;9.354;2024-01-10T18:48:25;5.50;;;5.10;;
1328;SDS011;658;48.820;9.354;2024-01-10T18:52:26;5.57;;;5.17;;
1328;SDS011;658;48.820;9.354;2024-01-10T18:56:27;5.93;;;5.53;;
1328;SDS011;658;48.820;9.354;2024-01-10T19:00:28;6.20;;;5.70;;
1328;SDS011;658;48.820;9.354;2024-01-10T19:04:28;6.47;;;5.97;;
1328;SDS011;658;48.820;9.354;2024-01-10T19:08:29;6.37;;;5.77;;
1328;SDS011;658;48.820;9.354;2024-01-10T19:12:30;6.47;;;5.97;;
1328;SDS011;658;48.820;9.354;2024-01-10T19:16:31;6.23;;;5.73;;
1328;SDS011;658;48.820;9.354;2024-01-10T19:20:31;7.00;;;6.50;;
1328;SDS011;658;48.820;9.354;2024-01-10T19:24:35;6.23;;;5.63;;
1328;SDS011;658;48.820;9.354;2024-01-10T19:28:36;6.23;;;5.73;;
1328;SDS011;658;48.820;9.354;2024-01-10T19:32:36;6.40;;;5.90;;
1328;SDS011;658;48.820;9.354;2024-01-10T19:36:37;6.73;;;6.23;;
1328;SDS011;658;48.820;9.354;2024-01-10T19:40:40;6.57;;;6.00;;
1328;SDS011;658;48.820;9.354;2024-01-10T19:44:40;6.60;;;6.00;;
1328;SDS011;658;48.820;9.354;2024-01-10T19:48:44;6.53;;;5.93;;
1328;SDS011;658;48.820;9.354;2024-01-10T19:52:45;7.13;;;6.53;;
1328;SDS011;658;48.820;9.354;2024-01-10T19:56:46;7.93;;;7.20;;
1328;SDS011;658;48.820;9.354;2024-01-10T20:00:51;7.53;;;6.90;;
1328;SDS011;658;48.820;9.354;2024-01-10T20:04:56;8.37;;;7.67;;
1328;SDS011;658;48.820;9.354;2024-01-10T20:08:57;7.60;;;7.00;;
1328;SDS011;658;48.820;9.354;2024-01-10T20:12:58;7.30;;;6.70;;
1328;SDS011;658;48.820;9.354;2024-01-10T20:16:58;8.60;;;7.80;;
1328;SDS011;658;48.820;9.354;2024-01-10T20:21:01;7.27;;;6.67;;
1328;SDS011;658;48.820;9.354;2024-01-10T20:25:02;7.77;;;7.03;;
1328;SDS011;658;48.820;9.354;2024-01-10T20:29:03;7.97;;;7.27;;
1328;SDS011;658;48.820;9.354;2024-01-10T20:33:04;8.57;;;7.87;;
1328;SDS011;658;48.820;9.354;2024-01-10T20:37:05;7.23;;;6.63;;
1328;SDS011;658;48.820;9.354;2024-01-10T20:41:06;7.03;;;6.43;;
1328;SDS011;658;48.820;9.354;2024-01-10T20:45:06;7.37;;;6.77;;
1328;SDS011;658;48.820;9.354;2024-01-10T20:49:10;6.90;;;6.40;;
1328;SDS011;658;48.820;9.354;2024-01-10T20:53:29;7.20;;;6.60;;
1328;SDS011;658;48.820;9.354;2024-01-10T20:57:30;6.50;;;6.00;;
1328;SDS011;658;48.820;9.354;2024-01-10T21:01:32;7.43;;;6.83;;
1328;SDS011;658;48.820;9.354;2024-01-10T21:05:32;8.13;;;7.33;;
1328;SDS011;658;48.820;9.354;2024-01-10T21:09:33;7.40;;;6.73;;
1328;SDS011;658;48.820;9.354;2024-01-10T21:13:35;5.97;;;5.57;;
1328;SDS011;658;48.820;9.354;2024-01-10T21:17:36;6.50;;;6.00;;
1328;SDS011;658;48.820;9.354;2024-01-10T21:21:36;6.80;;;6.30;;
1328;SDS011;658;48.820;9.354;2024-01-10T21:25:38;7.10;;;6.60;;
1328;SDS011;658;48.820;9.354;2024-01-10T21:29:41;7.27;;;6.67;;
1328;SDS011;658;48.820;9.354;2024-01-10T21:33:42;7.23;;;6.63;;
1328;SDS011;658;48.820;9.354;2024-01-10T21:37:42;7.73;;;7.13;;
1328;SDS011;658;48.820;9.354;2024-01-10T21:41:43;6.97;;;6.47;;
1328;SDS011;658;48.820;9.354;2024-01-10T21:45:46;6.80;;;6.30;;
1328;SDS011;658;48.820;9.354;2024-01-10T21:49:47;6.53;;;6.07;;
1328;SDS011;658;48.820;9.354;2024-01-10T21:53:48;6.87;;;6.27;;
1328;SDS011;658;48.820;9.354;2024-01-10T21:57:49;9.63;;;7.03;;
1328;SDS011;658;48.820;9.354;2024-01-10T22:01:50;6.73;;;6.23;;
1328;SDS011;658;48.820;9.354;2024-01-10T22:05:51;6.87;;;6.30;;
1328;SDS011;658;48.820;9.354;2024-01-10T22:09:52;7.03;;;6.33;;
1328;SDS011;658;48.820;9.354;2024-01-10T22:13:55;7.30;;;6.80;;
1328;SDS011;658;48.820;9.354;2024-01-10T22:17:56;7.03;;;6.43;;
1328;SDS011;658;48.820;9.354;2024-01-10T22:22:00;7.03;;;6.43;;
1328;SDS011;658;48.820;9.354;2024-01-10T22:26:02;7.60;;;6.90;;
1328;SDS011;658;48.820;9.354;2024-01-10T22:30:04;6.47;;;5.83;;
1328;SDS011;658;48.820;9.354;2024-01-10T22:34:05;6.60;;;6.07;;
1328;SDS011;658;48.820;9.354;2024-01-10T22:38:06;6.60;;;6.10;;
1328;SDS011;658;48.820;9.354;2024-01-10T22:42:07;6.63;;;6.13;;
1328;SDS011;658;48.820;9.354;2024-01-10T22:46:07;7.83;;;7.13;;
1328;SDS011;658;48.820;9.354;2024-01-10T22:50:08;6.70;;;6.20;;
1328;SDS011;658;48.820;9.354;2024-01-10T22:54:14;6.73;;;6.23;;
1328;SDS011;658;48.820;9.354;2024-01-10T22:58:14;6.87;;;6.37;;
1328;SDS011;658;48.820;9.354;2024-01-10T23:02:15;6.83;;;6.30;;
1328;SDS011;658;48.820;9.354;2024-01-10T23:06:18;6.90;;;6.30;;
1328;SDS011;658;48.820;9.354;2024-01-10T23:10:19;8.13;;;7.37;;
1328;SDS011;658;48.820;9.354;2024-01-10T23:14:21;6.53;;;6.03;;
1328;SDS011;658;48.820;9.354;2024-01-10T23:18:22;6.87;;;6.27;;
1328;SDS011;658;48.820;9.354;2024-01-10T23:22:22;7.47;;;6.87;;
1328;SDS011;658;48.820;9.354;2024-01-10T23:26:23;7.33;;;6.63;;
1328;SDS011;658;48.820;9.354;2024-01-10T23:30:23;7.13;;;6.53;;
1328;SDS011;658;48.820;9.354;2024-01-10T23:34:24;7.43;;;6.37;;
1328;SDS011;658;48.820;9.354;2024-01-10T23:38:25;6.97;;;6.37;;
1328;SDS011;658;48.820;9.354;2024-01-10T23:42:25;7.70;;;7.00;;
1328;SDS011;658;48.820;9.354;2024-01-10T23:46:26;7.27;;;6.67;;
1328;SDS011;658;48.820;9.354;2024-01-10T23:50:29;7.40;;;6.80;;
1328;SDS011;658;48.820;9.354;2024-01-10T23:54:29;8.43;;;7.23;;
1328;SDS011;658;48.820;9.354;2024-01-10T23:58:30;7.87;;;7.07;;
